sensor_id;sensor_type;location;lat;lon;timestamp;pressure;altitude;pressure_sealevel;temperature;humidity
10587;BME280;5341;47.606;7.576;2023-09-07T00:01:50;98981.50;;;27.25;44.59
10587;BME280;5341;47.606;7.576;2023-09-07T00:04:20;98981.78;;;27.24;44.34
10587;BME280;5341;47.606;7.576;2023-09-07T00:06:49;98979.63;;;27.21;44.43
10587;BME280;5341;47.606;7.576;2023-09-07T00:09:17;98983.47;;;27.20;44.41
10587;BME280;5341;47.606;7.576;2023-09-07T00:11:49;98984.88;;;27.17;44.60
10587;BME280;5341;47.606;7.576;2023-09-07T00:14:17;98976.38;;;27.13;44.71
10587;BME280;5341;47.606;7.576;2023-09-07T00:16:45;98974.72;;;27.12;44.67
10587;BME280;5341;47.606;7.576;2023-09-07T00:19:17;98976.13;;;27.10;44.44
10587;BME280;5341;47.606;7.576;2023-09-07T00:21:45;98978.34;;;27.08;44.64
10587;BME280;5341;47.606;7.576;2023-09-07T00:24:13;98973.13;;;27.06;44.72
10587;BME280;5341;47.606;7.576;2023-09-07T00:26:42;98971.78;;;27.04;44.47
10587;BME280;5341;47.606;7.576;2023-09-07T00:29:11;98978.38;;;27.03;44.50
10587;BME280;5341;47.606;7.576;2023-09-07T00:31:42;98978.66;;;27.01;44.50
10587;BME280;5341;47.606;7.576;2023-09-07T00:34:11;98970.13;;;26.98;44.57
10587;BME280;5341;47.606;7.576;2023-09-07T00:36:38;98972.34;;;26.96;44.58
10587;BME280;5341;47.606;7.576;2023-09-07T00:39:06;98974.56;;;26.94;45.05
10587;BME280;5341;47.606;7.576;2023-09-07T00:41:35;98967.44;;;26.93;44.75
10587;BME280;5341;47.606;7.576;2023-09-07T00:44:04;98975.41;;;26.89;44.69
10587;BME280;5341;47.606;7.576;2023-09-07T00:46:34;98971.00;;;26.88;44.93
10587;BME280;5341;47.606;7.576;2023-09-07T00:49:03;98975.97;;;26.86;44.79
10587;BME280;5341;47.606;7.576;2023-09-07T00:51:31;98979.81;;;26.85;45.05
10587;BME280;5341;47.606;7.576;2023-09-07T00:53:59;98970.22;;;26.82;45.08
10587;BME280;5341;47.606;7.576;2023-09-07T00:56:27;98972.44;;;26.80;45.01
10587;BME280;5341;47.606;7.576;2023-09-07T00:58:55;98972.72;;;26.79;45.01
10587;BME280;5341;47.606;7.576;2023-09-07T01:01:25;98977.66;;;26.77;44.94
10587;BME280;5341;47.606;7.576;2023-09-07T01:03:56;98959.03;;;26.74;45.20
10587;BME280;5341;47.606;7.576;2023-09-07T01:06:28;98967.53;;;26.72;45.15
10587;BME280;5341;47.606;7.576;2023-09-07T01:09:00;98968.66;;;26.71;45.27
10587;BME280;5341;47.606;7.576;2023-09-07T01:11:35;98968.13;;;26.69;45.06
10587;BME280;5341;47.606;7.576;2023-09-07T01:14:04;98969.50;;;26.67;45.15
10587;BME280;5341;47.606;7.576;2023-09-07T01:16:31;98969.75;;;26.65;45.28
10587;BME280;5341;47.606;7.576;2023-09-07T01:19:04;98963.75;;;26.63;45.02
10587;BME280;5341;47.606;7.576;2023-09-07T01:21:35;98971.44;;;26.61;44.90
10587;BME280;5341;47.606;7.576;2023-09-07T01:24:05;98963.50;;;26.60;45.23
10587;BME280;5341;47.606;7.576;2023-09-07T01:26:33;98962.16;;;26.57;45.38
10587;BME280;5341;47.606;7.576;2023-09-07T01:29:05;98969.84;;;26.55;45.05
10587;BME280;5341;47.606;7.576;2023-09-07T01:31:35;98958.31;;;26.53;45.25
10587;BME280;5341;47.606;7.576;2023-09-07T01:34:04;98958.88;;;26.50;45.21
10587;BME280;5341;47.606;7.576;2023-09-07T01:36:38;98965.75;;;26.47;45.45
10587;BME280;5341;47.606;7.576;2023-09-07T01:39:05;98964.41;;;26.45;45.16
10587;BME280;5341;47.606;7.576;2023-09-07T01:41:36;98963.84;;;26.43;45.23
10587;BME280;5341;47.606;7.576;2023-09-07T01:44:04;98960.56;;;26.41;45.31
10587;BME280;5341;47.606;7.576;2023-09-07T01:46:33;98961.66;;;26.40;45.53
10587;BME280;5341;47.606;7.576;2023-09-07T01:49:02;98963.03;;;26.37;45.56
10587;BME280;5341;47.606;7.576;2023-09-07T01:51:29;98967.97;;;26.35;45.25
10587;BME280;5341;47.606;7.576;2023-09-07T01:53:58;98966.59;;;26.33;45.39
10587;BME280;5341;47.606;7.576;2023-09-07T01:56:26;98965.25;;;26.30;45.26
10587;BME280;5341;47.606;7.576;2023-09-07T01:58:54;98965.50;;;26.28;45.73
10587;BME280;5341;47.606;7.576;2023-09-07T02:01:24;98958.38;;;26.27;45.76
10587;BME280;5341;47.606;7.576;2023-09-07T02:03:52;98955.09;;;26.25;45.53
10587;BME280;5341;47.606;7.576;2023-09-07T02:06:20;98956.50;;;26.23;45.54
10587;BME280;5341;47.606;7.576;2023-09-07T02:08:48;98959.53;;;26.21;45.58
10587;BME280;5341;47.606;7.576;2023-09-07T02:11:18;98954.31;;;26.20;45.44
10587;BME280;5341;47.606;7.576;2023-09-07T02:13:47;98950.22;;;26.17;45.55
10587;BME280;5341;47.606;7.576;2023-09-07T02:16:15;98953.22;;;26.16;45.71
10587;BME280;5341;47.606;7.576;2023-09-07T02:18:44;98949.13;;;26.13;45.50
10587;BME280;5341;47.606;7.576;2023-09-07T02:21:16;98955.69;;;26.12;45.71
10587;BME280;5341;47.606;7.576;2023-09-07T02:23:45;98959.00;;;26.09;45.60
10587;BME280;5341;47.606;7.576;2023-09-07T02:26:13;98950.25;;;26.07;45.62
10587;BME280;5341;47.606;7.576;2023-09-07T02:28:43;98955.19;;;26.05;45.72
10587;BME280;5341;47.606;7.576;2023-09-07T02:31:10;98952.72;;;26.04;45.73
10587;BME280;5341;47.606;7.576;2023-09-07T02:33:38;98956.53;;;26.03;45.83
10587;BME280;5341;47.606;7.576;2023-09-07T02:36:06;98957.41;;;25.98;45.83
10587;BME280;5341;47.606;7.576;2023-09-07T02:38:34;98957.41;;;25.98;45.82
10587;BME280;5341;47.606;7.576;2023-09-07T02:41:02;98959.59;;;25.96;45.89
10587;BME280;5341;47.606;7.576;2023-09-07T02:43:29;98961.78;;;25.94;45.89
10587;BME280;5341;47.606;7.576;2023-09-07T02:45:59;98956.56;;;25.92;45.81
10587;BME280;5341;47.606;7.576;2023-09-07T02:48:27;98959.88;;;25.89;45.72
10587;BME280;5341;47.606;7.576;2023-09-07T02:50:54;98960.16;;;25.88;45.95
10587;BME280;5341;47.606;7.576;2023-09-07T02:53:24;98967.00;;;25.85;45.72
10587;BME280;5341;47.606;7.576;2023-09-07T02:55:51;98962.91;;;25.83;45.71
10587;BME280;5341;47.606;7.576;2023-09-07T02:58:19;98958.53;;;25.82;46.04
10587;BME280;5341;47.606;7.576;2023-09-07T03:00:47;98962.63;;;25.79;45.88
10587;BME280;5341;47.606;7.576;2023-09-07T03:03:20;98954.69;;;25.78;45.95
10587;BME280;5341;47.606;7.576;2023-09-07T03:05:47;98959.63;;;25.76;45.95
10587;BME280;5341;47.606;7.576;2023-09-07T03:08:15;98965.38;;;25.74;45.86
10587;BME280;5341;47.606;7.576;2023-09-07T03:10:43;98969.22;;;25.73;45.88
10587;BME280;5341;47.606;7.576;2023-09-07T03:13:10;98965.94;;;25.71;45.97
10587;BME280;5341;47.606;7.576;2023-09-07T03:15:38;98968.97;;;25.69;45.82
10587;BME280;5341;47.606;7.576;2023-09-07T03:18:09;98959.31;;;25.67;45.95
10587;BME280;5341;47.606;7.576;2023-09-07T03:20:39;98957.69;;;25.66;46.09
10587;BME280;5341;47.606;7.576;2023-09-07T03:23:07;98959.59;;;25.65;45.84
10587;BME280;5341;47.606;7.576;2023-09-07T03:25:35;98958.25;;;25.63;45.99
10587;BME280;5341;47.606;7.576;2023-09-07T03:28:03;98957.69;;;25.61;46.06
10587;BME280;5341;47.606;7.576;2023-09-07T03:30:34;98957.97;;;25.59;45.73
10587;BME280;5341;47.606;7.576;2023-09-07T03:33:03;98957.44;;;25.57;45.88
10587;BME280;5341;47.606;7.576;2023-09-07T03:35:31;98966.75;;;25.56;45.96
10587;BME280;5341;47.606;7.576;2023-09-07T03:38:00;98960.72;;;25.54;45.79
10587;BME280;5341;47.606;7.576;2023-09-07T03:40:28;98951.94;;;25.52;45.79
10587;BME280;5341;47.606;7.576;2023-09-07T03:42:56;98967.56;;;25.52;45.76
10587;BME280;5341;47.606;7.576;2023-09-07T03:45:25;98967.03;;;25.50;46.00
10587;BME280;5341;47.606;7.576;2023-09-07T03:47:52;98967.31;;;25.48;45.83
10587;BME280;5341;47.606;7.576;2023-09-07T03:50:20;98962.38;;;25.45;46.00
10587;BME280;5341;47.606;7.576;2023-09-07T03:52:48;98965.38;;;25.43;45.82
10587;BME280;5341;47.606;7.576;2023-09-07T03:55:17;98965.66;;;25.42;46.12
10587;BME280;5341;47.606;7.576;2023-09-07T03:57:44;98965.09;;;25.40;45.83
10587;BME280;5341;47.606;7.576;2023-09-07T04:00:13;98965.38;;;25.38;45.86
10587;BME280;5341;47.606;7.576;2023-09-07T04:02:46;98961.28;;;25.36;45.82
10587;BME280;5341;47.606;7.576;2023-09-07T04:05:14;98970.88;;;25.33;46.01
10587;BME280;5341;47.606;7.576;2023-09-07T04:07:42;98962.06;;;25.31;45.89
10587;BME280;5341;47.606;7.576;2023-09-07T04:10:09;98959.63;;;25.30;45.95
10587;BME280;5341;47.606;7.576;2023-09-07T04:12:38;98965.38;;;25.28;45.95
10587;BME280;5341;47.606;7.576;2023-09-07T04:15:07;98966.75;;;25.26;46.13
10587;BME280;5341;47.606;7.576;2023-09-07T04:17:37;98964.28;;;25.24;46.17
10587;BME280;5341;47.606;7.576;2023-09-07T04:20:07;98960.19;;;25.22;46.04
10587;BME280;5341;47.606;7.576;2023-09-07T04:22:38;98963.19;;;25.20;46.05
10587;BME280;5341;47.606;7.576;2023-09-07T04:25:06;98959.88;;;25.18;45.98
10587;BME280;5341;47.606;7.576;2023-09-07T04:27:34;98963.72;;;25.17;46.29
10587;BME280;5341;47.606;7.576;2023-09-07T04:30:03;98965.91;;;25.15;46.23
10587;BME280;5341;47.606;7.576;2023-09-07T04:32:31;98961.53;;;25.14;46.06
10587;BME280;5341;47.606;7.576;2023-09-07T04:34:59;98966.47;;;25.12;46.03
10587;BME280;5341;47.606;7.576;2023-09-07T04:37:27;98967.56;;;25.11;46.08
10587;BME280;5341;47.606;7.576;2023-09-07T04:39:55;98970.56;;;25.09;46.05
10587;BME280;5341;47.606;7.576;2023-09-07T04:42:23;98971.66;;;25.08;46.23
10587;BME280;5341;47.606;7.576;2023-09-07T04:44:52;98977.38;;;25.07;46.22
10587;BME280;5341;47.606;7.576;2023-09-07T04:47:21;98977.66;;;25.05;46.31
10587;BME280;5341;47.606;7.576;2023-09-07T04:49:49;98972.47;;;25.04;46.18
10587;BME280;5341;47.606;7.576;2023-09-07T04:52:20;98974.91;;;25.00;46.28
10587;BME280;5341;47.606;7.576;2023-09-07T04:54:49;98976.00;;;24.99;46.38
10587;BME280;5341;47.606;7.576;2023-09-07T04:57:19;98974.63;;;24.97;46.19
10587;BME280;5341;47.606;7.576;2023-09-07T04:59:48;98982.03;;;24.96;46.37
10587;BME280;5341;47.606;7.576;2023-09-07T05:02:17;98986.09;;;24.94;46.41
10587;BME280;5341;47.606;7.576;2023-09-07T05:04:48;98988.00;;;24.93;46.37
10587;BME280;5341;47.606;7.576;2023-09-07T05:07:16;98990.19;;;24.91;46.33
10587;BME280;5341;47.606;7.576;2023-09-07T05:09:46;98993.47;;;24.88;46.38
10587;BME280;5341;47.606;7.576;2023-09-07T05:12:15;98985.53;;;24.87;46.50
10587;BME280;5341;47.606;7.576;2023-09-07T05:14:44;98988.56;;;24.85;46.39
10587;BME280;5341;47.606;7.576;2023-09-07T05:17:11;98988.81;;;24.83;46.41
10587;BME280;5341;47.606;7.576;2023-09-07T05:19:39;98993.72;;;24.81;46.48
10587;BME280;5341;47.606;7.576;2023-09-07T05:22:08;98988.53;;;24.80;46.39
10587;BME280;5341;47.606;7.576;2023-09-07T05:24:39;98995.91;;;24.79;46.59
10587;BME280;5341;47.606;7.576;2023-09-07T05:27:07;98998.91;;;24.78;46.49
10587;BME280;5341;47.606;7.576;2023-09-07T05:29:37;99002.47;;;24.78;46.59
10587;BME280;5341;47.606;7.576;2023-09-07T05:32:09;99001.94;;;24.76;46.56
10587;BME280;5341;47.606;7.576;2023-09-07T05:34:37;99005.75;;;24.75;46.63
10587;BME280;5341;47.606;7.576;2023-09-07T05:37:05;99006.84;;;24.74;46.66
10587;BME280;5341;47.606;7.576;2023-09-07T05:39:36;99002.19;;;24.75;46.68
10587;BME280;5341;47.606;7.576;2023-09-07T05:42:05;99004.13;;;24.74;46.56
10587;BME280;5341;47.606;7.576;2023-09-07T05:44:34;99007.13;;;24.73;46.67
10587;BME280;5341;47.606;7.576;2023-09-07T05:47:03;99009.59;;;24.74;46.71
10587;BME280;5341;47.606;7.576;2023-09-07T05:49:32;99006.84;;;24.74;46.61
10587;BME280;5341;47.606;7.576;2023-09-07T05:52:01;99016.16;;;24.73;46.64
10587;BME280;5341;47.606;7.576;2023-09-07T05:54:29;99011.22;;;24.75;46.74
10587;BME280;5341;47.606;7.576;2023-09-07T05:56:58;99020.53;;;24.74;46.75
10587;BME280;5341;47.606;7.576;2023-09-07T05:59:25;99016.69;;;24.75;46.79
10587;BME280;5341;47.606;7.576;2023-09-07T06:01:53;99024.91;;;24.75;46.70
10587;BME280;5341;47.606;7.576;2023-09-07T06:04:20;99029.28;;;24.76;46.81
10587;BME280;5341;47.606;7.576;2023-09-07T06:06:49;99023.81;;;24.76;46.89
10587;BME280;5341;47.606;7.576;2023-09-07T06:09:17;99020.81;;;24.78;47.04
10587;BME280;5341;47.606;7.576;2023-09-07T06:11:45;99025.19;;;24.79;47.14
10587;BME280;5341;47.606;7.576;2023-09-07T06:14:14;99017.53;;;24.81;46.87
10587;BME280;5341;47.606;7.576;2023-09-07T06:16:41;99011.78;;;24.82;47.04
10587;BME280;5341;47.606;7.576;2023-09-07T06:19:09;99022.47;;;24.84;47.07
10587;BME280;5341;47.606;7.576;2023-09-07T06:21:37;99023.31;;;24.84;47.10
10587;BME280;5341;47.606;7.576;2023-09-07T06:24:05;99015.63;;;24.87;47.06
10587;BME280;5341;47.606;7.576;2023-09-07T06:26:33;99011.81;;;24.88;47.11
10587;BME280;5341;47.606;7.576;2023-09-07T06:29:01;99019.75;;;24.89;47.15
10587;BME280;5341;47.606;7.576;2023-09-07T06:31:30;99018.38;;;24.92;47.05
10587;BME280;5341;47.606;7.576;2023-09-07T06:33:57;99011.81;;;24.93;47.20
10587;BME280;5341;47.606;7.576;2023-09-07T06:36:25;99015.38;;;24.93;47.10
10587;BME280;5341;47.606;7.576;2023-09-07T06:38:54;99010.44;;;24.95;47.15
10587;BME280;5341;47.606;7.576;2023-09-07T06:41:23;99012.13;;;24.96;47.37
10587;BME280;5341;47.606;7.576;2023-09-07T06:43:52;99018.13;;;24.98;47.39
10587;BME280;5341;47.606;7.576;2023-09-07T06:46:19;99017.88;;;25.00;47.44
10587;BME280;5341;47.606;7.576;2023-09-07T06:48:48;99022.00;;;25.02;47.48
10587;BME280;5341;47.606;7.576;2023-09-07T06:51:16;99027.75;;;25.06;47.51
10587;BME280;5341;47.606;7.576;2023-09-07T06:53:43;99027.22;;;25.09;47.43
10587;BME280;5341;47.606;7.576;2023-09-07T06:56:11;99038.44;;;25.12;47.38
10587;BME280;5341;47.606;7.576;2023-09-07T06:58:38;99022.28;;;25.16;47.36
10587;BME280;5341;47.606;7.576;2023-09-07T07:01:06;99031.88;;;25.19;47.23
10587;BME280;5341;47.606;7.576;2023-09-07T07:03:34;99030.25;;;25.23;47.37
10587;BME280;5341;47.606;7.576;2023-09-07T07:06:03;99033.25;;;25.26;47.42
10587;BME280;5341;47.606;7.576;2023-09-07T07:08:30;99028.06;;;25.30;47.38
10587;BME280;5341;47.606;7.576;2023-09-07T07:10:58;99031.09;;;25.33;47.28
10587;BME280;5341;47.606;7.576;2023-09-07T07:13:25;99034.94;;;25.37;47.16
10587;BME280;5341;47.606;7.576;2023-09-07T07:15:54;99031.63;;;25.40;47.16
10587;BME280;5341;47.606;7.576;2023-09-07T07:18:21;99038.22;;;25.45;47.14
10587;BME280;5341;47.606;7.576;2023-09-07T07:20:49;99043.97;;;25.48;47.51
10587;BME280;5341;47.606;7.576;2023-09-07T07:23:20;99035.22;;;25.51;47.43
10587;BME280;5341;47.606;7.576;2023-09-07T07:25:49;99043.16;;;25.58;47.44
10587;BME280;5341;47.606;7.576;2023-09-07T07:28:18;99041.53;;;25.62;47.40
10587;BME280;5341;47.606;7.576;2023-09-07T07:30:45;99043.41;;;25.66;47.26
10587;BME280;5341;47.606;7.576;2023-09-07T07:33:14;99031.97;;;25.69;47.55
10587;BME280;5341;47.606;7.576;2023-09-07T07:35:42;99041.00;;;25.75;47.56
10587;BME280;5341;47.606;7.576;2023-09-07T07:38:09;99041.84;;;25.81;47.66
10587;BME280;5341;47.606;7.576;2023-09-07T07:40:41;99035.25;;;25.87;47.75
10587;BME280;5341;47.606;7.576;2023-09-07T07:43:09;99042.38;;;25.93;47.56
10587;BME280;5341;47.606;7.576;2023-09-07T07:45:37;99037.69;;;25.98;47.43
10587;BME280;5341;47.606;7.576;2023-09-07T07:48:05;99035.75;;;26.04;47.38
10587;BME280;5341;47.606;7.576;2023-09-07T07:50:37;99042.88;;;26.10;47.79
10587;BME280;5341;47.606;7.576;2023-09-07T07:53:07;99041.75;;;26.16;47.63
10587;BME280;5341;47.606;7.576;2023-09-07T07:55:36;99035.19;;;26.22;47.82
10587;BME280;5341;47.606;7.576;2023-09-07T07:58:08;99039.28;;;26.30;47.63
10587;BME280;5341;47.606;7.576;2023-09-07T08:00:37;99037.91;;;26.38;47.56
10587;BME280;5341;47.606;7.576;2023-09-07T08:03:07;99037.91;;;26.43;47.57
10587;BME280;5341;47.606;7.576;2023-09-07T08:05:36;99035.97;;;26.48;47.56
10587;BME280;5341;47.606;7.576;2023-09-07T08:08:07;99034.03;;;26.54;47.78
10587;BME280;5341;47.606;7.576;2023-09-07T08:10:34;99032.91;;;26.60;47.50
10587;BME280;5341;47.606;7.576;2023-09-07T08:13:04;99030.38;;;26.74;47.42
10587;BME280;5341;47.606;7.576;2023-09-07T08:15:34;99032.78;;;26.85;47.56
10587;BME280;5341;47.606;7.576;2023-09-07T08:18:04;99031.38;;;26.93;47.51
10587;BME280;5341;47.606;7.576;2023-09-07T08:20:32;99032.19;;;27.04;47.34
10587;BME280;5341;47.606;7.576;2023-09-07T08:23:00;99031.03;;;27.15;47.42
10587;BME280;5341;47.606;7.576;2023-09-07T08:25:29;99030.41;;;27.23;47.29
10587;BME280;5341;47.606;7.576;2023-09-07T08:27:57;99026.00;;;27.27;46.63
10587;BME280;5341;47.606;7.576;2023-09-07T08:30:25;99021.56;;;27.31;47.04
10587;BME280;5341;47.606;7.576;2023-09-07T08:32:54;99018.50;;;27.38;47.26
10587;BME280;5341;47.606;7.576;2023-09-07T08:35:22;99018.69;;;27.47;46.94
10587;BME280;5341;47.606;7.576;2023-09-07T08:37:54;99017.00;;;27.56;47.35
10587;BME280;5341;47.606;7.576;2023-09-07T08:40:23;99016.94;;;27.66;47.10
10587;BME280;5341;47.606;7.576;2023-09-07T08:42:53;99010.53;;;27.76;46.95
10587;BME280;5341;47.606;7.576;2023-09-07T08:45:22;99019.22;;;27.88;46.34
10587;BME280;5341;47.606;7.576;2023-09-07T08:47:54;99017.13;;;28.03;45.85
10587;BME280;5341;47.606;7.576;2023-09-07T08:50:23;99010.66;;;28.18;45.31
10587;BME280;5341;47.606;7.576;2023-09-07T08:52:52;99016.00;;;28.34;45.00
10587;BME280;5341;47.606;7.576;2023-09-07T08:55:20;99021.34;;;28.49;45.21
10587;BME280;5341;47.606;7.576;2023-09-07T08:57:48;99014.06;;;28.58;45.38
10587;BME280;5341;47.606;7.576;2023-09-07T09:00:16;99015.34;;;28.66;45.24
10587;BME280;5341;47.606;7.576;2023-09-07T09:02:46;99015.22;;;28.76;44.73
10587;BME280;5341;47.606;7.576;2023-09-07T09:05:17;99009.03;;;28.89;44.70
10587;BME280;5341;47.606;7.576;2023-09-07T09:07:47;99011.94;;;28.98;44.51
10587;BME280;5341;47.606;7.576;2023-09-07T09:10:14;99010.75;;;29.04;44.57
10587;BME280;5341;47.606;7.576;2023-09-07T09:12:46;99013.94;;;29.11;44.66
10587;BME280;5341;47.606;7.576;2023-09-07T09:15:14;99011.06;;;29.21;44.29
10587;BME280;5341;47.606;7.576;2023-09-07T09:17:42;99003.97;;;29.34;44.02
10587;BME280;5341;47.606;7.576;2023-09-07T09:20:22;99008.75;;;29.47;43.34
10587;BME280;5341;47.606;7.576;2023-09-07T09:22:51;99008.59;;;29.57;43.62
10587;BME280;5341;47.606;7.576;2023-09-07T09:25:20;99006.75;;;29.66;43.47
10587;BME280;5341;47.606;7.576;2023-09-07T09:27:47;99003.94;;;29.71;43.68
10587;BME280;5341;47.606;7.576;2023-09-07T09:30:15;99004.03;;;29.80;43.11
10587;BME280;5341;47.606;7.576;2023-09-07T09:32:43;99005.50;;;29.91;42.47
10587;BME280;5341;47.606;7.576;2023-09-07T09:35:10;99000.31;;;30.03;42.41
10587;BME280;5341;47.606;7.576;2023-09-07T09:37:47;98999.63;;;30.12;42.50
10587;BME280;5341;47.606;7.576;2023-09-07T09:40:15;98997.91;;;30.16;42.83
10587;BME280;5341;47.606;7.576;2023-09-07T09:42:44;98998.00;;;30.24;42.25
10587;BME280;5341;47.606;7.576;2023-09-07T09:45:12;99001.91;;;30.37;42.30
10587;BME280;5341;47.606;7.576;2023-09-07T09:47:40;98996.19;;;30.47;41.71
10587;BME280;5341;47.606;7.576;2023-09-07T09:50:09;99000.06;;;30.60;41.39
10587;BME280;5341;47.606;7.576;2023-09-07T09:52:37;98994.84;;;30.72;40.95
10587;BME280;5341;47.606;7.576;2023-09-07T09:55:08;98993.50;;;30.83;41.70
10587;BME280;5341;47.606;7.576;2023-09-07T09:57:38;98991.34;;;30.94;40.82
10587;BME280;5341;47.606;7.576;2023-09-07T10:00:07;98988.66;;;31.03;40.63
10587;BME280;5341;47.606;7.576;2023-09-07T10:02:49;98984.81;;;31.12;40.59
10587;BME280;5341;47.606;7.576;2023-09-07T10:05:19;98980.22;;;31.22;40.00
10587;BME280;5341;47.606;7.576;2023-09-07T10:07:49;98980.50;;;31.34;40.41
10587;BME280;5341;47.606;7.576;2023-09-07T10:10:19;98973.72;;;31.40;40.75
10587;BME280;5341;47.606;7.576;2023-09-07T10:12:52;98976.34;;;31.45;40.50
10587;BME280;5341;47.606;7.576;2023-09-07T10:15:21;98973.25;;;31.46;41.06
10587;BME280;5341;47.606;7.576;2023-09-07T10:17:49;98967.94;;;31.50;40.44
10587;BME280;5341;47.606;7.576;2023-09-07T10:20:19;98970.88;;;31.54;40.56
10587;BME280;5341;47.606;7.576;2023-09-07T10:22:49;98966.22;;;31.63;39.94
10587;BME280;5341;47.606;7.576;2023-09-07T10:25:22;98966.50;;;31.75;39.72
10587;BME280;5341;47.606;7.576;2023-09-07T10:27:51;98963.44;;;31.85;40.20
10587;BME280;5341;47.606;7.576;2023-09-07T10:30:19;98970.22;;;32.01;39.71
10587;BME280;5341;47.606;7.576;2023-09-07T10:32:49;98961.75;;;32.06;39.29
10587;BME280;5341;47.606;7.576;2023-09-07T10:35:19;98967.16;;;32.12;39.61
10587;BME280;5341;47.606;7.576;2023-09-07T10:37:47;98967.81;;;32.17;39.40
10587;BME280;5341;47.606;7.576;2023-09-07T10:40:25;98962.66;;;32.24;39.48
10587;BME280;5341;47.606;7.576;2023-09-07T10:43:01;98963.66;;;32.28;39.24
10587;BME280;5341;47.606;7.576;2023-09-07T10:45:30;98968.75;;;32.35;38.64
10587;BME280;5341;47.606;7.576;2023-09-07T10:47:57;98969.91;;;32.43;39.39
10587;BME280;5341;47.606;7.576;2023-09-07T10:50:25;98958.03;;;32.51;39.50
10587;BME280;5341;47.606;7.576;2023-09-07T10:52:54;98956.13;;;32.60;39.69
10587;BME280;5341;47.606;7.576;2023-09-07T10:55:22;98956.91;;;32.69;38.71
10587;BME280;5341;47.606;7.576;2023-09-07T10:57:53;98956.13;;;32.77;39.16
10587;BME280;5341;47.606;7.576;2023-09-07T11:00:23;98957.16;;;32.90;38.92
10587;BME280;5341;47.606;7.576;2023-09-07T11:02:54;98953.09;;;32.96;38.61
10587;BME280;5341;47.606;7.576;2023-09-07T11:05:23;98953.41;;;33.03;38.02
10587;BME280;5341;47.606;7.576;2023-09-07T11:07:51;98948.03;;;33.15;37.61
10587;BME280;5341;47.606;7.576;2023-09-07T11:10:19;98938.38;;;33.30;37.08
10587;BME280;5341;47.606;7.576;2023-09-07T11:12:47;98941.53;;;33.37;37.50
10587;BME280;5341;47.606;7.576;2023-09-07T11:15:19;98937.13;;;33.36;37.97
10587;BME280;5341;47.606;7.576;2023-09-07T11:17:46;98940.84;;;33.40;37.36
10587;BME280;5341;47.606;7.576;2023-09-07T11:20:14;98932.31;;;33.63;35.70
10587;BME280;5341;47.606;7.576;2023-09-07T11:22:42;98930.16;;;33.77;36.32
10587;BME280;5341;47.606;7.576;2023-09-07T11:25:09;98943.88;;;33.82;36.37
10587;BME280;5341;47.606;7.576;2023-09-07T11:27:39;98934.38;;;33.92;35.71
10587;BME280;5341;47.606;7.576;2023-09-07T11:30:10;98934.06;;;33.93;37.37
10587;BME280;5341;47.606;7.576;2023-09-07T11:32:39;98931.78;;;33.95;36.45
10587;BME280;5341;47.606;7.576;2023-09-07T11:35:09;98932.88;;;34.03;37.36
10587;BME280;5341;47.606;7.576;2023-09-07T11:37:37;98927.00;;;34.04;37.49
10587;BME280;5341;47.606;7.576;2023-09-07T11:40:07;98920.09;;;34.11;36.78
10587;BME280;5341;47.606;7.576;2023-09-07T11:42:38;98920.50;;;34.30;35.87
10587;BME280;5341;47.606;7.576;2023-09-07T11:45:07;98918.75;;;34.55;34.30
10587;BME280;5341;47.606;7.576;2023-09-07T11:47:35;98924.84;;;34.69;34.21
10587;BME280;5341;47.606;7.576;2023-09-07T11:50:05;98920.78;;;34.66;35.68
10587;BME280;5341;47.606;7.576;2023-09-07T11:52:33;98921.59;;;34.67;35.33
10587;BME280;5341;47.606;7.576;2023-09-07T11:55:01;98916.47;;;34.78;34.39
10587;BME280;5341;47.606;7.576;2023-09-07T11:57:29;98924.22;;;34.93;33.83
10587;BME280;5341;47.606;7.576;2023-09-07T11:59:57;98922.13;;;34.90;34.28
10587;BME280;5341;47.606;7.576;2023-09-07T12:02:25;98916.56;;;34.90;34.16
10587;BME280;5341;47.606;7.576;2023-09-07T12:04:52;98912.63;;;34.91;34.31
10587;BME280;5341;47.606;7.576;2023-09-07T12:07:22;98912.97;;;34.89;35.22
10587;BME280;5341;47.606;7.576;2023-09-07T12:09:50;98910.19;;;34.89;36.05
10587;BME280;5341;47.606;7.576;2023-09-07T12:12:18;98911.66;;;34.87;36.07
10587;BME280;5341;47.606;7.576;2023-09-07T12:14:46;98912.28;;;34.92;35.06
10587;BME280;5341;47.606;7.576;2023-09-07T12:17:13;98909.34;;;35.10;34.47
10587;BME280;5341;47.606;7.576;2023-09-07T12:19:42;98903.88;;;35.34;33.76
10587;BME280;5341;47.606;7.576;2023-09-07T12:22:12;98901.78;;;35.52;34.03
10587;BME280;5341;47.606;7.576;2023-09-07T12:24:40;98901.06;;;35.55;34.00
10587;BME280;5341;47.606;7.576;2023-09-07T12:27:08;98899.47;;;35.66;33.68
10587;BME280;5341;47.606;7.576;2023-09-07T12:29:35;98898.22;;;35.76;33.69
10587;BME280;5341;47.606;7.576;2023-09-07T12:32:05;98891.06;;;35.87;33.78
10587;BME280;5341;47.606;7.576;2023-09-07T12:34:33;98886.06;;;35.93;33.46
10587;BME280;5341;47.606;7.576;2023-09-07T12:37:01;98887.25;;;35.92;33.47
10587;BME280;5341;47.606;7.576;2023-09-07T12:39:30;98886.19;;;35.96;34.11
10587;BME280;5341;47.606;7.576;2023-09-07T12:41:59;98882.38;;;36.01;34.11
10587;BME280;5341;47.606;7.576;2023-09-07T12:44:27;98887.13;;;36.13;33.67
10587;BME280;5341;47.606;7.576;2023-09-07T12:46:54;98882.22;;;36.22;33.86
10587;BME280;5341;47.606;7.576;2023-09-07T12:49:22;98882.94;;;36.31;32.90
10587;BME280;5341;47.606;7.576;2023-09-07T12:51:49;98887.16;;;36.37;33.08
10587;BME280;5341;47.606;7.576;2023-09-07T12:54:17;98885.16;;;36.37;32.91
10587;BME280;5341;47.606;7.576;2023-09-07T12:56:44;98878.06;;;36.40;33.92
10587;BME280;5341;47.606;7.576;2023-09-07T12:59:13;98879.13;;;36.48;32.64
10587;BME280;5341;47.606;7.576;2023-09-07T13:01:41;98870.16;;;36.54;32.45
10587;BME280;5341;47.606;7.576;2023-09-07T13:04:08;98877.13;;;36.60;30.85
10587;BME280;5341;47.606;7.576;2023-09-07T13:06:37;98867.56;;;36.74;29.86
10587;BME280;5341;47.606;7.576;2023-09-07T13:09:05;98862.66;;;36.83;28.70
10587;BME280;5341;47.606;7.576;2023-09-07T13:11:33;98870.53;;;36.93;28.25
10587;BME280;5341;47.606;7.576;2023-09-07T13:14:01;98867.59;;;37.02;28.37
10587;BME280;5341;47.606;7.576;2023-09-07T13:16:30;98867.00;;;37.08;28.43
10587;BME280;5341;47.606;7.576;2023-09-07T13:18:58;98863.84;;;37.10;28.98